createdAt,value
2023-03-11T00:04:58.948Z,0
2023-03-11T00:09:59.003Z,0
2023-03-11T00:14:58.688Z,0
2023-03-11T00:19:59.092Z,0
2023-03-11T00:24:58.912Z,0
2023-03-11T00:29:58.813Z,0
2023-03-11T00:34:58.732Z,0
2023-03-11T00:39:58.914Z,0
2023-03-11T00:44:58.713Z,0
2023-03-11T00:49:58.936Z,0
2023-03-11T00:54:58.826Z,0
2023-03-11T00:59:58.976Z,0
2023-03-11T01:04:58.924Z,0
2023-03-11T01:09:58.662Z,0
2023-03-11T01:14:58.794Z,0
2023-03-11T01:19:58.747Z,0
2023-03-11T01:24:59.249Z,0
2023-03-11T01:29:59.224Z,0
2023-03-11T01:34:58.755Z,0
2023-03-11T01:44:58.810Z,0
2023-03-11T01:49:58.676Z,0
2023-03-11T01:54:58.984Z,0
2023-03-11T01:59:58.730Z,0
2023-03-11T02:04:58.803Z,0
2023-03-11T02:09:58.827Z,0
2023-03-11T02:14:59.004Z,0
2023-03-11T02:19:58.804Z,0
2023-03-11T02:24:58.560Z,0
2023-03-11T02:29:59.638Z,0
2023-03-11T02:34:58.993Z,0
2023-03-11T02:40:27.578Z,0
2023-03-11T02:45:01.748Z,0
2023-03-11T02:49:58.737Z,0
2023-03-11T02:54:58.804Z,0
2023-03-11T02:59:58.644Z,0
2023-03-11T03:04:59.031Z,0
2023-03-11T03:09:58.642Z,0
2023-03-11T03:14:58.850Z,0
2023-03-11T03:19:58.600Z,0
2023-03-11T03:24:58.535Z,0
2023-03-11T03:29:58.795Z,0
2023-03-11T03:34:58.539Z,0
2023-03-11T03:39:58.876Z,0
2023-03-11T03:44:58.503Z,0
2023-03-11T03:49:58.735Z,0
2023-03-11T03:54:58.554Z,0
2023-03-11T03:59:59.113Z,0
2023-03-11T04:04:58.683Z,0
2023-03-11T04:09:58.912Z,0
2023-03-11T04:14:58.485Z,0
2023-03-11T04:19:58.678Z,0
2023-03-11T04:24:58.851Z,0
2023-03-11T04:29:58.779Z,0
2023-03-11T04:34:58.506Z,0
2023-03-11T04:39:58.483Z,0
2023-03-11T04:44:58.743Z,0
2023-03-11T04:49:58.992Z,0
2023-03-11T04:54:58.538Z,0
2023-03-11T04:59:58.788Z,0
2023-03-11T05:04:58.738Z,0
2023-03-11T05:09:58.777Z,0
2023-03-11T05:14:58.770Z,0
2023-03-11T05:19:58.801Z,0
2023-03-11T05:24:58.546Z,0
2023-03-11T05:29:58.474Z,0
2023-03-11T05:34:58.426Z,0
2023-03-11T05:39:58.785Z,0
2023-03-11T05:44:58.558Z,0
2023-03-11T05:49:58.648Z,0
2023-03-11T05:54:58.761Z,0
2023-03-11T05:59:58.541Z,0.2
2023-03-11T06:04:58.849Z,0.8
2023-03-11T06:09:58.616Z,1.7
2023-03-11T06:14:58.550Z,2.9
2023-03-11T06:19:58.483Z,4.5
2023-03-11T06:24:58.603Z,6.4
2023-03-11T06:29:58.465Z,8
2023-03-11T06:34:58.639Z,9.9
2023-03-11T06:39:58.618Z,11.9
2023-03-11T06:44:58.517Z,13.3
2023-03-11T06:49:58.562Z,15
2023-03-11T06:54:58.395Z,17.2
2023-03-11T06:59:58.672Z,18.9
2023-03-11T07:04:58.589Z,20.3
2023-03-11T07:09:58.744Z,22.2
2023-03-11T07:14:58.545Z,25.1
2023-03-11T07:19:58.703Z,27
2023-03-11T07:24:58.632Z,29.8
2023-03-11T07:29:58.374Z,32.2
2023-03-11T07:34:58.560Z,34
2023-03-11T07:39:58.681Z,36.6
2023-03-11T07:44:58.391Z,39.4
2023-03-11T07:49:58.592Z,42.5
2023-03-11T07:54:58.652Z,46.5
2023-03-11T07:59:58.406Z,50.6
2023-03-11T08:04:58.336Z,54
2023-03-11T08:09:58.581Z,56.2
2023-03-11T08:14:58.415Z,58.1
2023-03-11T08:19:58.721Z,59.5
2023-03-11T08:24:58.583Z,61.9
2023-03-11T08:29:58.850Z,64.7
2023-03-11T08:34:58.633Z,69.3
2023-03-11T08:39:58.641Z,69.6
2023-03-11T08:44:58.310Z,68.7
2023-03-11T08:49:58.242Z,70.3
2023-03-11T08:54:58.428Z,68.3
2023-03-11T08:59:58.481Z,79.3
2023-03-11T09:04:58.400Z,83
2023-03-11T09:09:58.317Z,87.7
2023-03-11T09:14:58.267Z,92.8
2023-03-11T09:19:58.496Z,88.9
2023-03-11T09:24:58.240Z,93.2
2023-03-11T09:29:58.530Z,120.5
2023-03-11T09:34:58.473Z,104.2
2023-03-11T09:39:58.506Z,92.4
2023-03-11T09:44:58.497Z,92.3
2023-03-11T09:49:58.220Z,90.7
2023-03-11T09:54:58.492Z,100.5
2023-03-11T10:00:00.631Z,119.2
2023-03-11T10:05:01.448Z,134.6
2023-03-11T10:09:58.325Z,141.8
2023-03-11T10:14:58.164Z,149.4
2023-03-11T10:19:58.361Z,166.6
2023-03-11T10:25:02.301Z,153
2023-03-11T10:29:58.362Z,146.9
2023-03-11T10:34:58.170Z,148.2
2023-03-11T10:45:17.274Z,124
2023-03-11T10:54:59.597Z,115.6
2023-03-11T11:00:29.604Z,119.9
2023-03-11T11:05:05.509Z,118.3
2023-03-11T11:09:58.370Z,115.7
2023-03-11T11:14:58.620Z,115.2
2023-03-11T11:25:36.548Z,128.8
2023-03-11T11:30:04.329Z,131.7
2023-03-11T11:34:58.373Z,139
2023-03-11T11:40:10.700Z,155.5
2023-03-11T11:44:58.051Z,159.7
2023-03-11T11:49:58.408Z,159.7
2023-03-11T11:54:58.072Z,167.9
2023-03-11T11:59:58.117Z,201.1
2023-03-11T12:05:40.491Z,242.7
2023-03-11T12:09:58.321Z,298.6
2023-03-11T12:15:02.104Z,344.3
2023-03-11T12:20:01.609Z,395.1
2023-03-11T12:25:01.384Z,469.2
2023-03-11T12:29:59.324Z,545.5
2023-03-11T12:34:59.297Z,582.7
2023-03-11T12:45:05.339Z,614.6
2023-03-11T12:54:58.037Z,609.5
2023-03-11T13:00:07.839Z,593.1
2023-03-11T13:05:27.134Z,580.5
2023-03-11T13:14:58.969Z,562.8
2023-03-11T13:20:47.304Z,553.8
2023-03-11T13:25:05.134Z,540.3
2023-03-11T13:30:02.359Z,491.6
2023-03-11T13:40:01.083Z,247
2023-03-11T13:45:01.149Z,157.7
2023-03-11T13:50:06.378Z,128.7
2023-03-11T13:55:05.123Z,128.7
2023-03-11T14:00:04.382Z,132.6
2023-03-11T14:09:58.065Z,141.1
2023-03-11T14:15:01.206Z,147.2
2023-03-11T14:19:58.347Z,143.5
2023-03-11T14:24:57.942Z,140.7
2023-03-11T14:29:58.656Z,144.2
2023-03-11T14:34:58.052Z,147.3
2023-03-11T14:39:58.072Z,150.9
2023-03-11T14:49:58.107Z,119.6
2023-03-11T14:54:59.063Z,89.8
2023-03-11T14:59:58.115Z,85.9
2023-03-11T15:04:59.510Z,89.7
2023-03-11T15:09:58.649Z,92.7
2023-03-11T15:14:59.475Z,94.9
2023-03-11T15:19:58.213Z,88.3
2023-03-11T15:24:59.270Z,86.7
2023-03-11T15:29:58.214Z,101.9
2023-03-11T15:34:58.144Z,109
2023-03-11T15:39:58.214Z,109.7
2023-03-11T15:45:13.977Z,97.5
2023-03-11T15:49:58.110Z,89.3
2023-03-11T15:54:58.090Z,83.9
2023-03-11T15:59:58.003Z,76.9
2023-03-11T16:04:58.157Z,102.5
2023-03-11T16:09:58.297Z,116.9
2023-03-11T16:14:58.045Z,74.6
2023-03-11T16:19:58.110Z,130.4
2023-03-11T16:24:58.148Z,78
2023-03-11T16:29:57.911Z,53.1
2023-03-11T16:34:58.196Z,49
2023-03-11T16:39:58.119Z,43.8
2023-03-11T16:44:58.305Z,37.3
2023-03-11T16:49:58.030Z,27.6
2023-03-11T16:54:57.857Z,21.9
2023-03-11T16:59:58.000Z,18.5
2023-03-11T17:04:58.193Z,15.6
2023-03-11T17:09:58.091Z,13.3
2023-03-11T17:14:58.100Z,10.6
2023-03-11T17:19:58.267Z,8.2
2023-03-11T17:24:58.007Z,6.2
2023-03-11T17:29:58.780Z,4.5
2023-03-11T17:34:57.919Z,3.1
2023-03-11T17:39:57.978Z,1.7
2023-03-11T17:44:58.059Z,0.7
2023-03-11T17:49:58.184Z,0.2
2023-03-11T17:54:57.982Z,0.1
2023-03-11T17:59:57.938Z,0
2023-03-11T18:04:57.814Z,0
2023-03-11T18:09:58.123Z,0
2023-03-11T18:14:57.705Z,0
2023-03-11T18:19:57.840Z,0
2023-03-11T18:24:57.820Z,0
2023-03-11T18:29:58.021Z,0
2023-03-11T18:34:57.998Z,0
2023-03-11T18:39:57.771Z,0
2023-03-11T18:44:58.162Z,0
2023-03-11T18:49:58.006Z,0
2023-03-11T18:54:57.773Z,0
2023-03-11T18:59:57.978Z,0
2023-03-11T19:04:57.956Z,0
2023-03-11T19:09:57.867Z,0
2023-03-11T19:14:57.795Z,0
2023-03-11T19:19:57.924Z,0
2023-03-11T19:24:57.749Z,0
2023-03-11T19:29:57.910Z,0
2023-03-11T19:34:57.914Z,0
2023-03-11T19:39:58.131Z,0
2023-03-11T19:44:57.714Z,0
2023-03-11T19:49:58.087Z,0
2023-03-11T19:54:57.673Z,0
2023-03-11T19:59:58.098Z,0
2023-03-11T20:04:58.177Z,0
2023-03-11T20:10:01.459Z,0
2023-03-11T20:14:58.218Z,0
2023-03-11T20:19:58.189Z,0
2023-03-11T20:24:57.941Z,0
2023-03-11T20:29:57.795Z,0
2023-03-11T20:34:57.763Z,0
2023-03-11T20:39:58.127Z,0
2023-03-11T20:44:57.927Z,0
2023-03-11T20:49:58.169Z,0
2023-03-11T20:54:58.023Z,0
2023-03-11T20:59:57.959Z,0
2023-03-11T21:04:57.837Z,0
2023-03-11T21:09:57.828Z,0
2023-03-11T21:14:57.908Z,0
2023-03-11T21:19:58.053Z,0
2023-03-11T21:24:57.698Z,0
2023-03-11T21:29:57.686Z,0
2023-03-11T21:34:58.412Z,0
2023-03-11T21:39:57.911Z,0
2023-03-11T21:44:57.698Z,0
2023-03-11T21:49:57.768Z,0
2023-03-11T21:54:58.017Z,0
2023-03-11T21:59:57.800Z,0
2023-03-11T22:04:58.185Z,0
2023-03-11T22:09:57.980Z,0
2023-03-11T22:14:58.013Z,0
2023-03-11T22:19:58.042Z,0
2023-03-11T22:24:57.724Z,0
2023-03-11T22:29:57.662Z,0
2023-03-11T22:34:57.569Z,0
2023-03-11T22:39:57.591Z,0
2023-03-11T22:44:57.811Z,0
2023-03-11T22:49:57.625Z,0
2023-03-11T22:54:57.727Z,0
2023-03-11T22:59:57.542Z,0
2023-03-11T23:04:58.013Z,0
2023-03-11T23:09:57.539Z,0
2023-03-11T23:14:57.750Z,0
2023-03-11T23:19:57.683Z,0
2023-03-11T23:24:57.585Z,0
2023-03-11T23:29:57.692Z,0
2023-03-11T23:34:57.544Z,0
2023-03-11T23:39:57.652Z,0
2023-03-11T23:44:57.590Z,0
2023-03-11T23:49:57.905Z,0
2023-03-11T23:54:57.930Z,0
2023-03-11T23:59:57.467Z,0
